createdAt,value
2022-09-12T00:01:10.356Z,40.30
2022-09-12T00:03:39.745Z,36.47
2022-09-12T00:06:12.952Z,41.30
2022-09-12T00:08:41.212Z,46.70
2022-09-12T00:11:13.370Z,42.15
2022-09-12T00:13:43.163Z,43.08
2022-09-12T00:16:18.619Z,36.45
2022-09-12T00:18:47.680Z,40.83
2022-09-12T00:21:16.686Z,35.75
2022-09-12T00:23:45.198Z,44.60
2022-09-12T00:26:15.646Z,41.60
2022-09-12T00:28:44.093Z,37.33
2022-09-12T00:31:15.108Z,36.78
2022-09-12T00:33:43.683Z,37.38
2022-09-12T00:36:16.222Z,36.63
2022-09-12T00:38:44.977Z,37.30
2022-09-12T00:41:18.574Z,38.95
2022-09-12T00:43:49.515Z,41.75
2022-09-12T00:46:29.030Z,41.45
2022-09-12T00:49:01.310Z,39.97
2022-09-12T00:51:32.555Z,44.20
2022-09-12T00:54:04.031Z,47.20
2022-09-12T00:56:34.095Z,44.88
2022-09-12T00:59:05.577Z,37.70
2022-09-12T01:01:34.846Z,39.35
2022-09-12T01:04:03.873Z,51.38
2022-09-12T01:06:38.008Z,45.33
2022-09-12T01:09:06.837Z,44.17
2022-09-12T01:11:39.772Z,43.10
2022-09-12T01:14:08.845Z,45.03
2022-09-12T01:16:38.574Z,42.40
2022-09-12T01:19:26.381Z,41.70
2022-09-12T01:22:12.453Z,48.35
2022-09-12T01:25:02.204Z,45.22
2022-09-12T01:27:43.107Z,52.00
2022-09-12T01:30:29.726Z,43.80
2022-09-12T01:33:45.018Z,51.00
2022-09-12T01:36:35.752Z,45.90
2022-09-12T01:39:07.257Z,49.13
2022-09-12T01:41:45.435Z,52.35
2022-09-12T01:44:20.958Z,46.42
2022-09-12T01:46:57.190Z,52.42
2022-09-12T01:49:29.774Z,50.13
2022-09-12T01:52:01.331Z,52.15
2022-09-12T01:54:37.835Z,49.25
2022-09-12T01:57:14.817Z,46.13
2022-09-12T01:59:46.620Z,38.97
2022-09-12T02:02:20.207Z,48.58
2022-09-12T02:04:55.776Z,53.40
2022-09-12T02:07:32.095Z,49.38
2022-09-12T02:10:07.193Z,53.20
2022-09-12T02:12:43.609Z,60.15
2022-09-12T02:15:16.317Z,48.28
2022-09-12T02:17:50.587Z,52.35
2022-09-12T02:20:44.353Z,54.70
2022-09-12T02:23:20.554Z,41.92
2022-09-12T02:25:52.135Z,45.45
2022-09-12T02:28:24.311Z,42.63
2022-09-12T02:31:03.753Z,49.65
2022-09-12T02:33:45.173Z,44.95
2022-09-12T02:36:24.014Z,41.65
2022-09-12T02:38:52.647Z,46.28
2022-09-12T02:41:22.504Z,42.72
2022-09-12T02:43:52.538Z,48.75
2022-09-12T02:46:27.158Z,49.58
2022-09-12T02:48:58.189Z,43.65
2022-09-12T02:51:27.878Z,48.95
2022-09-12T02:53:59.906Z,53.35
2022-09-12T02:56:31.276Z,52.83
2022-09-12T02:59:05.823Z,45.50
2022-09-12T03:02:02.021Z,49.75
2022-09-12T03:04:47.931Z,48.13
2022-09-12T03:07:26.536Z,53.25
2022-09-12T03:12:40.242Z,50.65
2022-09-12T03:15:20.590Z,48.95
2022-09-12T03:18:02.969Z,48.20
2022-09-12T03:20:45.691Z,51.30
2022-09-12T03:23:26.591Z,56.35
2022-09-12T03:26:00.135Z,48.80
2022-09-12T03:28:29.376Z,58.00
2022-09-12T03:30:59.559Z,54.15
2022-09-12T03:33:27.953Z,47.40
2022-09-12T03:35:57.949Z,53.85
2022-09-12T03:38:25.993Z,54.83
2022-09-12T03:40:56.694Z,48.92
2022-09-12T03:43:26.550Z,47.42
2022-09-12T03:45:56.341Z,45.63
2022-09-12T03:48:26.699Z,55.70
2022-09-12T03:50:55.555Z,47.75
2022-09-12T03:53:25.347Z,54.47
2022-09-12T03:55:53.596Z,51.08
2022-09-12T03:58:21.759Z,48.13
2022-09-12T04:00:52.806Z,40.88
2022-09-12T04:03:58.091Z,51.10
2022-09-12T04:06:26.705Z,47.85
2022-09-12T04:08:56.257Z,43.85
2022-09-12T04:11:24.727Z,46.58
2022-09-12T04:13:53.079Z,40.72
2022-09-12T04:16:21.865Z,43.00
2022-09-12T04:18:50.171Z,48.97
2022-09-12T04:21:21.812Z,45.85
2022-09-12T04:23:53.564Z,47.58
2022-09-12T04:26:25.694Z,41.03
2022-09-12T04:28:56.159Z,39.90
2022-09-12T04:31:25.430Z,38.85
2022-09-12T04:33:57.249Z,45.70
2022-09-12T04:36:26.603Z,45.78
2022-09-12T04:38:55.555Z,45.90
2022-09-12T04:41:26.602Z,52.97
2022-09-12T04:43:58.490Z,49.92
2022-09-12T04:46:27.379Z,45.50
2022-09-12T04:48:56.994Z,45.58
2022-09-12T04:51:28.211Z,42.78
2022-09-12T04:53:58.190Z,40.17
2022-09-12T04:56:29.531Z,53.55
2022-09-12T04:58:59.322Z,48.00
2022-09-12T05:01:29.991Z,43.58
2022-09-12T05:03:59.981Z,41.03
2022-09-12T05:06:30.089Z,41.92
2022-09-12T05:09:01.355Z,41.15
2022-09-12T05:12:03.196Z,36.08
2022-09-12T05:14:23.880Z,39.95
2022-09-12T05:16:52.166Z,37.33
2022-09-12T05:19:20.425Z,41.35
2022-09-12T05:21:48.729Z,39.33
2022-09-12T05:24:17.152Z,37.75
2022-09-12T05:26:46.686Z,37.90
2022-09-12T05:29:15.220Z,34.50
2022-09-12T05:31:43.547Z,34.72
2022-09-12T05:34:12.711Z,37.60
2022-09-12T05:36:40.732Z,39.42
2022-09-12T05:41:37.301Z,31.15
2022-09-12T05:44:08.670Z,38.67
2022-09-12T05:46:39.100Z,28.58
2022-09-12T05:49:09.032Z,28.58
2022-09-12T05:51:39.275Z,29.88
2022-09-12T05:54:09.256Z,28.75
2022-09-12T05:56:40.165Z,30.17
2022-09-12T05:59:13.692Z,27.08
2022-09-12T06:01:42.777Z,26.27
2022-09-12T06:04:11.169Z,25.35
2022-09-12T06:06:43.341Z,28.60
2022-09-12T06:09:13.120Z,23.55
2022-09-12T06:11:48.680Z,23.75
2022-09-12T06:14:20.138Z,28.17
2022-09-12T06:16:49.903Z,24.02
2022-09-12T06:19:19.965Z,22.13
2022-09-12T06:21:49.406Z,22.67
2022-09-12T06:24:19.125Z,17.00
2022-09-12T06:26:48.034Z,20.25
2022-09-12T06:29:19.235Z,20.08
2022-09-12T06:31:50.166Z,26.52
2022-09-12T06:34:19.532Z,15.75
2022-09-12T06:36:49.466Z,16.85
2022-09-12T06:39:19.382Z,13.80
2022-09-12T06:41:48.365Z,18.73
2022-09-12T06:44:19.284Z,15.73
2022-09-12T06:46:48.009Z,14.32
2022-09-12T06:49:17.537Z,21.88
2022-09-12T06:51:45.840Z,21.40
2022-09-12T06:54:15.330Z,15.15
2022-09-12T06:56:43.839Z,22.38
2022-09-12T06:59:12.256Z,19.52
2022-09-12T07:01:42.226Z,17.98
2022-09-12T07:04:10.573Z,15.32
2022-09-12T07:06:40.551Z,17.23
2022-09-12T07:09:12.021Z,15.15
2022-09-12T07:11:42.123Z,20.55
2022-09-12T07:14:13.837Z,18.02
2022-09-12T07:16:43.784Z,21.63
2022-09-12T07:19:12.556Z,18.63
2022-09-12T07:21:41.505Z,18.75
2022-09-12T07:24:10.819Z,13.13
2022-09-12T07:26:41.914Z,13.75
2022-09-12T07:32:05.839Z,16.75
2022-09-12T07:34:34.532Z,17.75
2022-09-12T07:37:02.637Z,13.18
2022-09-12T07:39:30.630Z,18.15
2022-09-12T07:41:58.654Z,14.57
2022-09-12T07:44:27.286Z,13.88
2022-09-12T07:46:55.371Z,15.35
2022-09-12T07:49:25.061Z,14.18
2022-09-12T07:51:53.211Z,18.98
2022-09-12T07:54:21.570Z,15.48
2022-09-12T07:56:49.820Z,18.30
2022-09-12T07:59:35.353Z,17.02
2022-09-12T08:02:06.371Z,16.50
2022-09-12T08:04:36.410Z,16.48
2022-09-12T08:07:04.523Z,17.45
2022-09-12T08:09:32.506Z,19.15
2022-09-12T08:12:00.567Z,15.43
2022-09-12T08:14:29.675Z,16.00
2022-09-12T08:16:57.741Z,15.77
2022-09-12T08:19:25.794Z,15.40
2022-09-12T08:21:55.212Z,20.90
2022-09-12T08:24:23.420Z,21.55
2022-09-12T08:26:51.628Z,18.08
2022-09-12T08:29:19.801Z,18.48
2022-09-12T08:31:48.480Z,15.27
2022-09-12T08:34:19.162Z,18.95
2022-09-12T08:36:47.272Z,17.45
2022-09-12T08:39:16.902Z,19.50
2022-09-12T08:41:46.595Z,15.88
2022-09-12T08:44:31.613Z,17.02
2022-09-12T08:47:18.614Z,15.57
2022-09-12T08:49:56.370Z,16.95
2022-09-12T08:52:28.664Z,14.93
2022-09-12T08:54:58.482Z,21.20
2022-09-12T08:57:26.671Z,17.23
2022-09-12T08:59:55.079Z,15.52
2022-09-12T09:03:02.855Z,16.08
2022-09-12T09:05:47.158Z,14.02
2022-09-12T09:08:27.312Z,16.70
2022-09-12T09:11:03.798Z,14.65
2022-09-12T09:14:05.391Z,14.32
2022-09-12T09:16:37.772Z,14.25
2022-09-12T09:19:12.981Z,13.80
2022-09-12T09:21:46.500Z,16.20
2022-09-12T09:24:18.946Z,11.93
2022-09-12T09:26:54.630Z,18.52
2022-09-12T09:29:28.067Z,13.52
2022-09-12T09:31:59.439Z,14.63
2022-09-12T09:34:31.585Z,15.00
2022-09-12T09:37:08.290Z,10.45
2022-09-12T09:39:47.964Z,16.42
2022-09-12T09:42:27.666Z,13.52
2022-09-12T09:45:00.213Z,13.43
2022-09-12T09:47:29.304Z,11.05
2022-09-12T09:49:58.034Z,13.07
2022-09-12T09:52:33.034Z,11.35
2022-09-12T09:55:02.764Z,15.95
2022-09-12T09:57:44.610Z,13.18
2022-09-12T10:00:30.502Z,18.70
2022-09-12T10:03:04.656Z,15.65
2022-09-12T10:05:37.203Z,13.55
2022-09-12T10:08:08.177Z,13.88
2022-09-12T10:10:36.770Z,12.18
2022-09-12T10:13:21.327Z,9.48
2022-09-12T10:15:59.196Z,10.40
2022-09-12T10:18:51.025Z,7.35
2022-09-12T10:21:29.558Z,9.90
2022-09-12T10:24:07.076Z,8.02
2022-09-12T10:29:18.062Z,6.60
2022-09-12T10:31:52.282Z,6.93
2022-09-12T10:34:25.318Z,5.90
2022-09-12T10:36:59.513Z,6.43
2022-09-12T10:39:28.282Z,7.10
2022-09-12T10:41:56.416Z,4.50
2022-09-12T10:44:31.656Z,5.95
2022-09-12T10:47:01.976Z,8.18
2022-09-12T10:49:37.966Z,7.15
2022-09-12T10:52:19.006Z,3.55
2022-09-12T10:54:47.206Z,3.70
2022-09-12T10:57:37.770Z,5.30
2022-09-12T11:00:16.752Z,4.32
2022-09-12T11:03:03.718Z,4.55
2022-09-12T11:05:43.635Z,5.20
2022-09-12T11:08:27.556Z,6.03
2022-09-12T11:11:04.650Z,5.60
2022-09-12T11:13:50.992Z,4.35
2022-09-12T11:16:28.386Z,5.03
2022-09-12T11:21:53.903Z,2.90
2022-09-12T11:24:38.218Z,9.00
2022-09-12T11:27:20.527Z,7.35
2022-09-12T11:29:56.853Z,4.43
2022-09-12T11:32:41.775Z,2.63
2022-09-12T11:35:19.026Z,4.68
2022-09-12T11:40:31.878Z,3.70
2022-09-12T11:43:04.698Z,7.28
2022-09-12T11:45:40.472Z,3.65
2022-09-12T11:48:19.491Z,6.20
2022-09-12T11:50:47.849Z,7.03
2022-09-12T11:53:20.421Z,2.45
2022-09-12T11:55:56.004Z,2.70
2022-09-12T11:58:27.221Z,7.53
2022-09-12T12:00:59.754Z,5.22
2022-09-12T12:03:34.144Z,3.70
2022-09-12T12:06:05.752Z,5.38
2022-09-12T12:08:39.704Z,3.78
2022-09-12T12:11:09.046Z,4.10
2022-09-12T12:13:40.810Z,2.10
2022-09-12T12:16:15.042Z,4.68
2022-09-12T12:18:45.419Z,7.88
2022-09-12T12:21:39.405Z,4.13
2022-09-12T12:24:17.087Z,3.95
2022-09-12T12:26:57.325Z,5.00
2022-09-12T12:29:44.300Z,3.85
2022-09-12T12:32:26.289Z,4.30
2022-09-12T12:35:37.023Z,3.60
2022-09-12T12:38:27.135Z,5.30
2022-09-12T12:40:55.790Z,3.40
2022-09-12T12:43:32.145Z,3.15
2022-09-12T12:46:09.453Z,3.05
2022-09-12T12:49:10.683Z,4.43
2022-09-12T12:51:44.337Z,2.13
2022-09-12T12:54:33.037Z,3.85
2022-09-12T12:57:16.075Z,3.78
2022-09-12T12:59:50.034Z,6.63
2022-09-12T13:02:30.257Z,3.08
2022-09-12T13:05:01.186Z,2.55
2022-09-12T13:07:34.297Z,7.45
2022-09-12T13:10:07.282Z,4.72
2022-09-12T13:12:38.989Z,5.10
2022-09-12T13:15:40.986Z,4.35
2022-09-12T13:18:14.660Z,4.13
2022-09-12T13:20:51.133Z,4.55
2022-09-12T13:23:25.254Z,3.65
2022-09-12T13:25:56.749Z,4.05
2022-09-12T13:28:26.303Z,5.95
2022-09-12T13:31:02.955Z,3.00
2022-09-12T13:33:38.981Z,2.75
2022-09-12T13:36:41.720Z,2.50
2022-09-12T13:39:16.537Z,3.25
2022-09-12T13:42:03.741Z,3.03
2022-09-12T13:44:38.354Z,3.28
2022-09-12T13:47:06.810Z,3.75
2022-09-12T13:49:40.553Z,2.75
2022-09-12T13:52:10.989Z,4.18
2022-09-12T13:54:40.069Z,3.58
2022-09-12T13:57:28.917Z,4.18
2022-09-12T13:59:58.496Z,5.07
2022-09-12T14:02:29.102Z,2.97
2022-09-12T14:05:10.314Z,4.25
2022-09-12T14:07:55.041Z,4.18
2022-09-12T14:10:30.140Z,3.75
2022-09-12T14:13:01.550Z,3.15
2022-09-12T14:15:33.304Z,4.10
2022-09-12T14:18:03.598Z,4.38
2022-09-12T14:20:33.495Z,2.97
2022-09-12T14:23:05.329Z,3.78
2022-09-12T14:25:38.528Z,3.50
2022-09-12T14:28:14.589Z,3.03
2022-09-12T14:30:42.886Z,3.10
2022-09-12T14:33:21.938Z,2.95
2022-09-12T14:35:52.482Z,5.03
2022-09-12T14:38:25.886Z,4.95
2022-09-12T14:41:02.093Z,2.47
2022-09-12T14:43:33.746Z,2.97
2022-09-12T14:46:07.340Z,3.75
2022-09-12T14:48:39.183Z,2.63
2022-09-12T14:51:07.861Z,5.30
2022-09-12T14:53:38.151Z,6.50
2022-09-12T14:56:11.762Z,2.97
2022-09-12T14:58:42.845Z,2.30
2022-09-12T15:01:28.795Z,2.78
2022-09-12T15:03:59.704Z,3.00
2022-09-12T15:06:32.741Z,3.17
2022-09-12T15:09:08.094Z,3.05
2022-09-12T15:11:42.231Z,3.20
2022-09-12T15:14:14.135Z,3.08
2022-09-12T15:16:42.758Z,5.47
2022-09-12T15:19:10.830Z,5.75
2022-09-12T15:21:39.021Z,2.58
2022-09-12T15:24:09.071Z,3.17
2022-09-12T15:26:37.106Z,4.65
2022-09-12T15:29:05.319Z,6.07
2022-09-12T15:31:34.747Z,3.05
2022-09-12T15:34:03.738Z,2.90
2022-09-12T15:36:31.799Z,2.65
2022-09-12T15:38:59.965Z,4.63
2022-09-12T15:41:32.420Z,3.28
2022-09-12T15:44:01.178Z,6.25
2022-09-12T15:46:29.363Z,2.80
2022-09-12T15:48:58.900Z,2.78
2022-09-12T15:51:26.997Z,4.20
2022-09-12T15:53:55.228Z,2.67
2022-09-12T15:56:24.027Z,3.97
2022-09-12T15:58:59.228Z,3.20
2022-09-12T16:01:29.158Z,4.30
2022-09-12T16:03:59.075Z,6.28
2022-09-12T16:06:27.820Z,7.05
2022-09-12T16:08:56.175Z,4.57
2022-09-12T16:11:26.194Z,3.25
2022-09-12T16:13:55.326Z,5.15
2022-09-12T16:16:23.505Z,4.70
2022-09-12T16:18:51.803Z,6.57
2022-09-12T16:21:21.518Z,3.30
2022-09-12T16:23:49.962Z,3.45
2022-09-12T16:26:18.245Z,3.97
2022-09-12T16:28:46.573Z,3.88
2022-09-12T16:31:15.311Z,6.68
2022-09-12T16:33:43.490Z,4.18
2022-09-12T16:36:13.011Z,5.45
2022-09-12T16:38:43.838Z,5.85
2022-09-12T16:41:12.017Z,3.63
2022-09-12T16:43:40.633Z,3.28
2022-09-12T16:46:10.990Z,2.30
2022-09-12T16:48:45.860Z,2.13
2022-09-12T16:51:17.702Z,2.20
2022-09-12T16:53:48.262Z,3.22
2022-09-12T16:56:16.899Z,5.00
2022-09-12T16:58:45.314Z,4.03
2022-09-12T17:01:15.001Z,2.95
2022-09-12T17:03:43.911Z,3.92
2022-09-12T17:06:14.011Z,2.78
2022-09-12T17:08:43.968Z,4.68
2022-09-12T17:11:15.362Z,2.60
2022-09-12T17:14:03.834Z,2.30
2022-09-12T17:16:33.780Z,3.05
2022-09-12T17:19:02.002Z,4.28
2022-09-12T17:21:30.104Z,4.00
2022-09-12T17:23:59.119Z,2.00
2022-09-12T17:26:28.601Z,3.03
2022-09-12T17:28:56.875Z,3.28
2022-09-12T17:31:24.880Z,5.57
2022-09-12T17:33:57.164Z,3.35
2022-09-12T17:36:26.550Z,4.68
2022-09-12T17:38:55.177Z,3.10
2022-09-12T17:41:25.477Z,3.55
2022-09-12T17:43:57.281Z,3.15
2022-09-12T17:46:28.530Z,3.50
2022-09-12T17:48:58.250Z,5.13
2022-09-12T17:51:30.649Z,7.93
2022-09-12T17:54:01.050Z,3.58
2022-09-12T17:56:31.149Z,4.35
2022-09-12T17:59:01.166Z,5.30
2022-09-12T18:01:48.202Z,4.53
2022-09-12T18:04:17.263Z,9.88
2022-09-12T18:06:48.089Z,3.97
2022-09-12T18:09:18.492Z,5.68
2022-09-12T18:11:47.996Z,6.18
2022-09-12T18:14:18.415Z,4.32
2022-09-12T18:16:47.344Z,7.75
2022-09-12T18:19:15.543Z,8.93
2022-09-12T18:21:43.946Z,10.65
2022-09-12T18:24:12.585Z,5.20
2022-09-12T18:26:40.864Z,4.63
2022-09-12T18:29:09.272Z,8.57
2022-09-12T18:31:38.751Z,5.53
2022-09-12T18:34:12.528Z,5.40
2022-09-12T18:36:44.623Z,5.10
2022-09-12T18:39:14.148Z,7.38
2022-09-12T18:41:42.152Z,5.55
2022-09-12T18:44:12.537Z,9.50
2022-09-12T18:46:42.015Z,7.55
2022-09-12T18:49:10.600Z,7.30
2022-09-12T18:51:41.600Z,6.40
2022-09-12T18:54:13.713Z,7.40
2022-09-12T18:56:43.838Z,9.00
2022-09-12T18:59:14.246Z,5.32
2022-09-12T19:01:44.046Z,7.13
2022-09-12T19:04:14.978Z,9.50
2022-09-12T19:06:45.040Z,11.27
2022-09-12T19:09:15.088Z,6.28
2022-09-12T19:11:48.766Z,4.72
2022-09-12T19:14:18.412Z,6.57
2022-09-12T19:16:48.138Z,7.13
2022-09-12T19:19:16.269Z,6.45
2022-09-12T19:21:44.457Z,6.60
2022-09-12T19:24:13.567Z,4.93
2022-09-12T19:26:43.014Z,7.57
2022-09-12T19:29:14.255Z,8.18
2022-09-12T19:31:42.713Z,5.47
2022-09-12T19:34:13.412Z,4.95
2022-09-12T19:36:45.452Z,7.07
2022-09-12T19:39:15.220Z,4.88
2022-09-12T19:41:43.714Z,6.57
2022-09-12T19:44:12.031Z,5.13
2022-09-12T19:46:40.366Z,5.45
2022-09-12T19:49:08.972Z,7.32
2022-09-12T19:51:38.836Z,7.88
2022-09-12T19:54:07.763Z,7.40
2022-09-12T19:56:35.919Z,6.30
2022-09-12T19:59:04.243Z,4.97
2022-09-12T20:01:33.077Z,10.25
2022-09-12T20:04:01.309Z,7.25
2022-09-12T20:06:29.399Z,5.05
2022-09-12T20:09:00.265Z,10.07
2022-09-12T20:11:28.476Z,6.97
2022-09-12T20:13:56.481Z,7.30
2022-09-12T20:16:28.367Z,5.13
2022-09-12T20:18:58.381Z,5.20
2022-09-12T20:21:31.432Z,9.95
2022-09-12T20:24:02.816Z,5.15
2022-09-12T20:26:31.306Z,6.45
2022-09-12T20:28:59.703Z,5.07
2022-09-12T20:31:28.032Z,8.25
2022-09-12T20:33:56.787Z,8.10
2022-09-12T20:36:25.059Z,6.90
2022-09-12T20:38:56.580Z,5.05
2022-09-12T20:41:27.542Z,5.35
2022-09-12T20:43:57.177Z,8.57
2022-09-12T20:46:27.334Z,7.05
2022-09-12T20:48:55.701Z,8.07
2022-09-12T20:51:24.567Z,7.22
2022-09-12T20:53:54.492Z,6.75
2022-09-12T20:56:23.256Z,6.68
2022-09-12T20:58:53.047Z,5.63
2022-09-12T21:01:22.491Z,10.85
2022-09-12T21:03:50.690Z,5.35
2022-09-12T21:06:19.863Z,7.38
2022-09-12T21:08:49.015Z,7.18
2022-09-12T21:11:17.983Z,9.43
2022-09-12T21:13:46.214Z,5.38
2022-09-12T21:16:19.127Z,7.10
2022-09-12T21:18:47.616Z,5.97
2022-09-12T21:21:16.865Z,6.75
2022-09-12T21:23:44.940Z,5.78
2022-09-12T21:26:13.049Z,7.30
2022-09-12T21:28:41.206Z,5.88
2022-09-12T21:31:09.714Z,6.10
2022-09-12T21:33:39.184Z,5.38
2022-09-12T21:36:09.615Z,6.88
2022-09-12T21:38:38.168Z,6.72
2022-09-12T21:41:08.336Z,6.18
2022-09-12T21:43:37.206Z,6.07
2022-09-12T21:46:07.022Z,7.47
2022-09-12T21:48:35.212Z,7.70
2022-09-12T21:51:05.195Z,5.55
2022-09-12T21:53:33.380Z,7.43
2022-09-12T21:56:03.611Z,6.97
2022-09-12T21:58:32.591Z,9.55
2022-09-12T22:01:01.313Z,5.65
2022-09-12T22:03:30.674Z,7.85
2022-09-12T22:05:59.881Z,6.38
2022-09-12T22:08:30.366Z,8.95
2022-09-12T22:11:00.869Z,8.55
2022-09-12T22:13:31.363Z,8.30
2022-09-12T22:16:00.566Z,7.32
2022-09-12T22:18:28.779Z,12.50
2022-09-12T22:21:01.514Z,5.75
2022-09-12T22:23:49.297Z,9.95
2022-09-12T22:26:17.950Z,9.38
2022-09-12T22:28:47.082Z,13.43
2022-09-12T22:31:16.110Z,8.93
2022-09-12T22:33:44.776Z,15.57
2022-09-12T22:36:13.500Z,10.63
2022-09-12T22:38:43.607Z,9.70
2022-09-12T22:41:13.150Z,22.52
2022-09-12T22:43:41.416Z,36.67
2022-09-12T22:46:12.100Z,40.80
2022-09-12T22:48:41.269Z,42.67
2022-09-12T22:51:10.032Z,15.73
2022-09-12T22:53:39.098Z,25.35
2022-09-12T22:56:10.045Z,14.95
2022-09-12T22:58:38.807Z,23.40
2022-09-12T23:01:07.835Z,9.68
2022-09-12T23:03:36.973Z,14.95
2022-09-12T23:06:05.551Z,12.27
2022-09-12T23:08:36.059Z,11.10
2022-09-12T23:11:06.029Z,22.17
2022-09-12T23:13:35.620Z,9.95
2022-09-12T23:16:06.488Z,7.78
2022-09-12T23:18:36.518Z,12.98
2022-09-12T23:21:06.611Z,14.20
2022-09-12T23:23:36.191Z,5.93
2022-09-12T23:26:06.318Z,7.40
2022-09-12T23:28:36.622Z,5.68
2022-09-12T23:31:05.074Z,8.88
2022-09-12T23:33:33.629Z,5.20
2022-09-12T23:36:02.373Z,4.72
2022-09-12T23:38:31.197Z,4.90
2022-09-12T23:41:00.044Z,4.82
2022-09-12T23:43:28.890Z,8.85
2022-09-12T23:45:59.076Z,5.70
2022-09-12T23:48:27.798Z,8.35
2022-09-12T23:50:56.183Z,4.68
2022-09-12T23:53:25.023Z,8.43
2022-09-12T23:55:54.138Z,5.32
2022-09-12T23:58:22.849Z,4.82
